KDOV

Dover AFB Airport

Dover, Delaware, USA
METAR KDOV 140356Z AUTO 29006KT 10SM CLR 07/01 A3019 RMK AO2 SLPNO T00700011 $
Observed Flight Rules
Nov-14 @ 03:56 UTC (52 minutes ago) Visual Flight Rules
Wind Visibility Clouds
290° at 6 knots 10 miles
  • Clear skies
Temperatures Readings
Current 7°C / 45°F
Dewpoint 1°C / 34°F
Humidity 66%
Altimeter 30.19" Hg
Pressure 1022 hPa
Elevation 9
METAR KDOV 140356Z AUTO 29006KT 10SM CLR 07/01 A3019 RMK AO2 SLPNO T00700011 $
Observed Flight Rules
Nov-14 @ 03:56 UTC
(52 minutes ago)
VFR
Wind Visibility
290° at 6 knots 10 miles
Clouds
  • Clear skies
Temperature Dewpoint
7°C / 45°F 1°C / 34°F
Humidity Altimeter Pressure
66% 30.19" Hg 1022 hPa